首页
METAR-TAF:

METAR-TAF

机场 :

德布勒森, 匈牙利

纬度: 47-29N, 经度: 021-36E, 海拔: 108米

当前天气观测

该预报发布于28分钟前的19:15 UTC
风速2节,风向南转南东
温度 3°C
湿度 52%
气压 1014 hPa
能見度: 9000

METAR: LHDC 021915Z AUTO 15002KT 9000 NCD 03/M06 Q1014

时间: 21:43 (19:43 UTC)

预报

该预报发布于26小时和28分钟前的17:15 UTC
预报有效从01日的 18点(UTC)到 02日的 03点(UTC)
风速3节,风向多变
能见度10公里或以上
1500米以下无云,无积雨云

TAF: LHDC 011715Z 0118/0203 VRB03KT CAVOK

超过4000个机场的气象观测和天气预报(METAR&TAF报告)。

可查询的气象台以黄色和红色小点在地图上表示。

将鼠标移到小点上方,可查看气象台名称。

然后点击查看天气观测和预报。

如需切换地图:点击带黑十字的绿色按钮放大地图;点击带横线的绿色按钮缩小地图;或者点击绿色箭头查看邻近地区的地图。


METAR-TAF: